Time;durP1;ratioP1;P1;durP2;ratioP2;P2;SDS_P1;SDS_P2;PMS_P1;PMS_P2;Temp;Humidity;BMP_temperature;BMP_pressure;BME280_temperature;BME280_humidity;BME280_pressure;Samples;Min_cycle;Max_cycle;Signal;HPM_P1;HPM_P2
2020/12/18 00:02:26;;;;;;;21.40;6.30;;;8.10;99.90;;;;;;5080741;28;20205;-81
2020/12/18 00:04:52;;;;;;;16.07;5.83;;;8.00;99.90;;;;;;5078688;28;20211;-80
2020/12/18 00:07:20;;;;;;;14.00;5.13;;;8.10;99.90;;;;;;5076146;28;20228;-80
2020/12/18 00:09:46;;;;;;;10.73;5.10;;;8.00;99.90;;;;;;5072890;28;20651;-81
2020/12/18 00:12:12;;;;;;;13.60;5.07;;;8.10;99.90;;;;;;5074789;28;20287;-79
2020/12/18 00:14:39;;;;;;;14.80;5.27;;;8.10;99.90;;;;;;5076467;28;20208;-82
2020/12/18 00:17:05;;;;;;;16.70;5.03;;;8.00;99.90;;;;;;5076130;28;20680;-81
2020/12/18 00:19:32;;;;;;;19.17;5.10;;;8.10;99.90;;;;;;5072833;28;20636;-80
2020/12/18 00:21:59;;;;;;;12.27;5.10;;;8.10;99.90;;;;;;5077357;28;20201;-80
2020/12/18 00:24:27;;;;;;;10.20;4.90;;;8.10;99.90;;;;;;5075678;28;20288;-81
2020/12/18 00:26:53;;;;;;;18.23;4.70;;;8.00;99.90;;;;;;5078547;28;20289;-80
2020/12/18 00:29:20;;;;;;;15.23;4.43;;;8.00;99.90;;;;;;5077894;28;20207;-80
2020/12/18 00:31:46;;;;;;;11.03;4.57;;;8.10;99.90;;;;;;5072999;28;20205;-79
2020/12/18 00:34:13;;;;;;;14.17;5.10;;;8.10;99.90;;;;;;5073049;28;20288;-80
2020/12/18 00:36:39;;;;;;;11.57;5.13;;;8.10;99.90;;;;;;5071965;28;20290;-79
2020/12/18 00:39:06;;;;;;;11.33;4.13;;;8.00;99.90;;;;;;5076963;28;20248;-81
2020/12/18 00:41:34;;;;;;;16.03;4.73;;;8.00;99.90;;;;;;5076749;28;20215;-79
2020/12/18 00:44:01;;;;;;;12.93;4.40;;;8.00;99.90;;;;;;5075305;28;20208;-79
2020/12/18 00:46:27;;;;;;;11.40;4.03;;;7.90;99.90;;;;;;5076104;28;20776;-79
2020/12/18 00:48:53;;;;;;;11.50;3.63;;;8.00;99.90;;;;;;5076068;28;20288;-80
2020/12/18 00:51:20;;;;;;;10.70;3.83;;;7.90;99.90;;;;;;5072520;28;20197;-80
2020/12/18 00:53:46;;;;;;;10.97;3.83;;;8.00;99.90;;;;;;5073517;28;20198;-79
2020/12/18 00:56:13;;;;;;;10.33;4.07;;;7.90;99.90;;;;;;5079117;28;20202;-80
2020/12/18 00:58:43;;;;;;;11.10;3.33;;;7.90;99.90;;;;;;5079569;28;20238;-80
2020/12/18 01:01:10;;;;;;;7.73;3.63;;;7.90;99.90;;;;;;5077645;28;20261;-79
2020/12/18 01:03:36;;;;;;;10.10;3.47;;;7.90;99.90;;;;;;5073185;28;20199;-80
2020/12/18 01:06:07;;;;;;;15.17;3.80;;;7.90;99.90;;;;;;5072454;28;20219;-79
2020/12/18 01:08:33;;;;;;;7.00;3.13;;;7.90;99.90;;;;;;5071566;28;20266;-79
2020/12/18 01:11:02;;;;;;;10.63;3.73;;;7.90;99.90;;;;;;5073926;28;20282;-81
2020/12/18 01:13:29;;;;;;;9.57;3.73;;;7.90;99.90;;;;;;5077267;28;20283;-79
2020/12/18 01:15:56;;;;;;;7.37;3.43;;;7.90;99.90;;;;;;5071708;28;20282;-79
2020/12/18 01:18:24;;;;;;;8.80;3.60;;;7.80;99.90;;;;;;5072099;28;20310;-82
2020/12/18 01:20:50;;;;;;;12.17;3.87;;;7.80;99.90;;;;;;5074019;28;20717;-81
2020/12/18 01:23:17;;;;;;;9.57;3.20;;;7.70;99.90;;;;;;5086374;28;20296;-80
2020/12/18 01:25:43;;;;;;;8.20;3.00;;;7.80;99.90;;;;;;5091734;28;20211;-81
2020/12/18 01:28:11;;;;;;;7.17;3.10;;;7.80;99.90;;;;;;5092192;28;20297;-80
2020/12/18 01:30:37;;;;;;;10.50;2.97;;;7.90;99.90;;;;;;5091501;28;20676;-79
2020/12/18 01:33:04;;;;;;;9.40;3.10;;;7.80;99.90;;;;;;5091885;28;20213;-81
2020/12/18 01:35:31;;;;;;;10.13;3.47;;;7.80;99.90;;;;;;5090952;28;20207;-81
2020/12/18 01:37:57;;;;;;;9.87;3.17;;;7.80;99.90;;;;;;5092094;28;20206;-80
2020/12/18 01:40:24;;;;;;;7.13;3.07;;;7.90;99.90;;;;;;5091420;28;20225;-81
2020/12/18 01:42:50;;;;;;;9.63;2.83;;;7.90;99.90;;;;;;5091747;28;20208;-80
2020/12/18 01:45:17;;;;;;;6.43;2.83;;;7.90;99.90;;;;;;5091717;28;20646;-80
2020/12/18 01:47:45;;;;;;;9.50;3.10;;;7.90;99.90;;;;;;5091002;28;20197;-78
2020/12/18 01:50:13;;;;;;;11.07;3.40;;;7.80;99.90;;;;;;5091589;28;20263;-80
2020/12/18 01:52:39;;;;;;;9.53;3.10;;;7.70;99.90;;;;;;5091077;28;20712;-79
2020/12/18 01:55:10;;;;;;;10.57;3.13;;;7.80;99.90;;;;;;5091480;28;20287;-79
2020/12/18 01:57:39;;;;;;;8.87;2.67;;;7.80;99.90;;;;;;5091485;28;20208;-81
2020/12/18 02:00:08;;;;;;;7.77;2.57;;;7.80;99.90;;;;;;5091457;28;20220;-80
2020/12/18 02:02:35;;;;;;;11.27;2.97;;;7.90;99.90;;;;;;5090926;28;20341;-79
2020/12/18 02:05:01;;;;;;;7.77;2.97;;;8.00;99.90;;;;;;5082592;28;20207;-80
2020/12/18 02:07:30;;;;;;;7.27;2.87;;;8.00;99.90;;;;;;5091814;28;20205;-79
2020/12/18 02:09:56;;;;;;;7.73;2.50;;;7.90;99.90;;;;;;5093431;28;20221;-80
2020/12/18 02:12:23;;;;;;;9.43;2.33;;;8.00;99.90;;;;;;5095597;28;20288;-78
2020/12/18 02:14:50;;;;;;;7.80;2.73;;;7.90;99.90;;;;;;5095404;28;20208;-78
2020/12/18 02:17:17;;;;;;;8.70;2.50;;;8.00;99.90;;;;;;5094725;28;20208;-79
2020/12/18 02:19:44;;;;;;;5.97;2.60;;;8.00;99.90;;;;;;5095713;28;20637;-80
2020/12/18 02:22:14;;;;;;;6.30;2.17;;;8.00;99.90;;;;;;5095195;28;20215;-79
2020/12/18 02:24:50;;;;;;;8.87;2.50;;;8.00;99.90;;;;;;5095637;28;20228;-80
2020/12/18 02:27:18;;;;;;;8.77;2.33;;;8.00;99.90;;;;;;5095521;28;20296;-79
2020/12/18 02:29:44;;;;;;;7.77;2.37;;;8.10;99.90;;;;;;5095154;28;20204;-80
2020/12/18 02:32:11;;;;;;;5.97;2.07;;;8.10;99.90;;;;;;5094846;28;20306;-79
2020/12/18 02:34:37;;;;;;;9.27;2.47;;;8.00;99.90;;;;;;5095651;28;20258;-79
2020/12/18 02:37:04;;;;;;;8.40;2.50;;;8.00;99.90;;;;;;5095028;28;20207;-78
2020/12/18 02:39:30;;;;;;;9.43;2.80;;;8.00;99.90;;;;;;5095198;28;20718;-80
2020/12/18 02:41:56;;;;;;;8.80;2.53;;;8.00;99.90;;;;;;5095073;28;20220;-80
2020/12/18 02:44:24;;;;;;;8.97;2.00;;;8.00;99.90;;;;;;5094860;28;20291;-79
2020/12/18 02:46:50;;;;;;;8.77;2.00;;;7.90;99.90;;;;;;5093997;28;20642;-78
2020/12/18 02:49:17;;;;;;;10.60;2.30;;;7.90;99.90;;;;;;5095022;28;20327;-78
2020/12/18 02:51:44;;;;;;;7.43;2.33;;;8.00;99.90;;;;;;5094156;28;20717;-79
2020/12/18 02:54:11;;;;;;;7.40;1.70;;;8.10;99.90;;;;;;5095395;28;20282;-81
2020/12/18 02:56:38;;;;;;;9.47;2.40;;;8.00;99.90;;;;;;5094092;28;20576;-79
2020/12/18 02:59:05;;;;;;;7.57;2.10;;;8.00;99.90;;;;;;5094348;28;20319;-78
2020/12/18 03:01:32;;;;;;;6.97;1.83;;;8.00;99.90;;;;;;5094390;28;20214;-78
2020/12/18 03:03:58;;;;;;;6.77;1.90;;;8.10;99.90;;;;;;5094790;28;20199;-79
2020/12/18 03:06:27;;;;;;;4.53;1.60;;;8.00;99.90;;;;;;5094075;28;20201;-78
2020/12/18 03:08:59;;;;;;;9.63;2.10;;;8.00;99.90;;;;;;5095285;28;20202;-79
2020/12/18 03:11:26;;;;;;;6.83;1.80;;;8.00;99.90;;;;;;5094207;28;20204;-79
2020/12/18 03:13:52;;;;;;;7.60;2.20;;;8.10;99.90;;;;;;5094549;28;20208;-79
2020/12/18 03:16:18;;;;;;;5.77;2.07;;;8.10;99.90;;;;;;5094115;28;20662;-79
2020/12/18 03:18:46;;;;;;;12.63;2.10;;;8.00;99.90;;;;;;5094944;28;20697;-78
2020/12/18 03:21:12;;;;;;;7.37;2.00;;;8.00;99.90;;;;;;5093439;28;20307;-82
2020/12/18 03:23:38;;;;;;;7.70;1.63;;;8.00;99.90;;;;;;5094629;28;20204;-81
2020/12/18 03:26:05;;;;;;;5.83;1.80;;;8.00;99.90;;;;;;5093499;28;20237;-80
2020/12/18 03:28:31;;;;;;;10.43;2.10;;;7.90;99.90;;;;;;5094594;28;20227;-81
2020/12/18 03:31:04;;;;;;;11.20;2.00;;;8.00;99.90;;;;;;5094262;28;20195;-80
2020/12/18 03:33:30;;;;;;;7.30;1.90;;;8.10;99.90;;;;;;5099007;28;20317;-81
2020/12/18 03:35:57;;;;;;;11.47;2.10;;;8.00;99.90;;;;;;5101530;28;20200;-80
2020/12/18 03:38:25;;;;;;;7.87;1.80;;;7.90;99.90;;;;;;5100407;28;20672;-81
2020/12/18 03:40:51;;;;;;;6.80;1.73;;;7.90;99.90;;;;;;5099222;28;20258;-81
2020/12/18 03:43:18;;;;;;;6.87;1.63;;;7.90;99.90;;;;;;5102061;28;20206;-81
2020/12/18 03:45:44;;;;;;;6.43;1.57;;;8.00;99.90;;;;;;5100712;28;20285;-81
2020/12/18 03:48:10;;;;;;;9.50;2.00;;;7.90;99.90;;;;;;5101584;28;20206;-79
2020/12/18 03:50:37;;;;;;;8.37;2.20;;;7.90;99.90;;;;;;5101971;28;20225;-81
2020/12/18 03:53:04;;;;;;;10.63;1.90;;;7.90;99.90;;;;;;5102844;28;20234;-80
2020/12/18 03:55:30;;;;;;;9.93;2.37;;;8.00;99.90;;;;;;5074852;28;20299;-79
2020/12/18 03:57:57;;;;;;;9.90;2.23;;;8.00;99.90;;;;;;5077846;28;20197;-79
2020/12/18 04:00:23;;;;;;;6.00;2.53;;;7.90;99.90;;;;;;5089386;28;20337;-78
2020/12/18 04:02:49;;;;;;;9.50;2.37;;;7.90;99.90;;;;;;5086992;28;20635;-79
2020/12/18 04:05:16;;;;;;;10.77;2.37;;;7.90;99.90;;;;;;5093324;28;20655;-78
2020/12/18 04:07:42;;;;;;;11.20;2.80;;;7.90;99.90;;;;;;5094243;28;20287;-80
2020/12/18 04:10:09;;;;;;;6.37;2.47;;;7.90;99.90;;;;;;5090422;28;20282;-80
2020/12/18 04:12:36;;;;;;;5.90;2.53;;;7.80;99.90;;;;;;5083050;28;20301;-81
2020/12/18 04:15:03;;;;;;;11.00;3.07;;;7.80;99.90;;;;;;5094612;28;20684;-78
2020/12/18 04:17:32;;;;;;;5.17;2.80;;;7.90;99.90;;;;;;5094374;28;20203;-80
2020/12/18 04:19:58;;;;;;;7.77;2.90;;;7.90;99.90;;;;;;5093822;28;20281;-81
2020/12/18 04:22:25;;;;;;;8.20;2.93;;;8.00;99.90;;;;;;5078492;28;20245;-81
2020/12/18 04:24:51;;;;;;;8.87;3.00;;;7.90;99.90;;;;;;5093430;28;20283;-80
2020/12/18 04:27:18;;;;;;;7.20;3.63;;;7.90;99.90;;;;;;5089459;28;20490;-81
2020/12/18 04:29:44;;;;;;;7.83;3.03;;;7.80;99.90;;;;;;5083337;28;20208;-81
2020/12/18 04:32:11;;;;;;;8.53;3.27;;;7.80;99.90;;;;;;5093517;28;20232;-80
2020/12/18 04:34:37;;;;;;;8.73;3.80;;;7.90;99.90;;;;;;5092598;28;20244;-81
2020/12/18 04:37:04;;;;;;;9.07;3.53;;;7.90;99.90;;;;;;5092107;28;20244;-80
2020/12/18 04:39:30;;;;;;;5.37;3.00;;;7.80;99.90;;;;;;5092934;28;20228;-80
2020/12/18 04:41:56;;;;;;;9.60;3.50;;;7.80;99.90;;;;;;5092923;28;20234;-78
2020/12/18 04:44:24;;;;;;;12.47;3.60;;;7.80;99.90;;;;;;5093312;28;20218;-82
2020/12/18 04:46:51;;;;;;;11.20;3.37;;;7.80;99.90;;;;;;5092870;28;20669;-79
2020/12/18 04:49:19;;;;;;;8.77;3.40;;;7.80;99.90;;;;;;5093389;28;20205;-80
2020/12/18 04:51:45;;;;;;;11.23;3.60;;;7.90;99.90;;;;;;5092498;28;20989;-80
2020/12/18 04:54:12;;;;;;;9.77;3.80;;;7.80;99.90;;;;;;5092775;28;20563;-79
2020/12/18 04:56:42;;;;;;;9.97;3.73;;;7.90;99.90;;;;;;5092268;28;20194;-79
2020/12/18 04:59:08;;;;;;;9.40;4.10;;;7.90;99.90;;;;;;5092484;28;20226;-79
2020/12/18 05:01:36;;;;;;;13.93;4.17;;;8.00;99.90;;;;;;5086897;28;20684;-80
2020/12/18 05:04:03;;;;;;;8.03;3.50;;;8.00;99.90;;;;;;5083129;28;20337;-79
2020/12/18 05:06:29;;;;;;;7.97;3.60;;;8.10;99.90;;;;;;5092303;28;20218;-80
2020/12/18 05:08:56;;;;;;;8.10;3.77;;;8.10;99.90;;;;;;5092531;28;20201;-79
2020/12/18 05:11:24;;;;;;;8.47;4.13;;;8.30;99.90;;;;;;5091778;28;20305;-80
2020/12/18 05:13:52;;;;;;;9.43;4.00;;;8.30;99.90;;;;;;5092859;28;20208;-80
2020/12/18 05:16:19;;;;;;;7.50;3.80;;;8.40;99.90;;;;;;5091964;28;20205;-78
2020/12/18 05:18:46;;;;;;;7.87;3.77;;;8.60;99.90;;;;;;5092002;28;20201;-80
2020/12/18 05:21:13;;;;;;;12.77;3.80;;;8.50;99.90;;;;;;5092656;28;20287;-79
2020/12/18 05:23:41;;;;;;;10.07;4.00;;;8.60;99.90;;;;;;5092371;28;20217;-80
2020/12/18 05:26:08;;;;;;;9.07;3.83;;;8.70;99.90;;;;;;5092645;28;20208;-79
2020/12/18 05:28:42;;;;;;;12.20;4.03;;;8.80;99.90;;;;;;5092556;28;20288;-79
2020/12/18 05:31:13;;;;;;;7.07;4.10;;;8.80;99.90;;;;;;5092260;28;20216;-79
2020/12/18 05:33:40;;;;;;;9.43;4.10;;;8.80;99.90;;;;;;5092415;28;20287;-79
2020/12/18 05:36:07;;;;;;;11.37;4.17;;;9.00;99.90;;;;;;5092175;28;20257;-79
2020/12/18 05:38:37;;;;;;;7.70;3.83;;;9.00;99.90;;;;;;5092378;28;20270;-80
2020/12/18 05:41:04;;;;;;;10.33;3.87;;;9.00;99.90;;;;;;5092617;28;20268;-81
2020/12/18 05:43:38;;;;;;;6.23;3.53;;;9.00;99.90;;;;;;5093257;28;20197;-79
2020/12/18 05:46:20;;;;;;;7.50;3.70;;;9.00;99.90;;;;;;5079410;28;20281;-80
2020/12/18 05:48:55;;;;;;;8.20;3.20;;;9.10;99.90;;;;;;5090295;28;20200;-79
2020/12/18 05:51:33;;;;;;;10.45;3.80;;;9.10;99.90;;;;;;5092119;28;20425;-79
2020/12/18 05:54:14;;;;;;;7.70;3.07;;;9.20;99.90;;;;;;5092267;28;20211;-79
2020/12/18 05:56:41;;;;;;;6.47;2.80;;;9.10;99.90;;;;;;5092236;28;20198;-79
2020/12/18 05:59:10;;;;;;;11.43;3.03;;;9.20;99.90;;;;;;5090179;28;20319;-79
2020/12/18 06:01:41;;;;;;;6.70;2.93;;;9.20;99.90;;;;;;5092227;28;20656;-79
2020/12/18 06:04:12;;;;;;;5.13;2.80;;;9.30;99.90;;;;;;5092492;28;20200;-82
2020/12/18 06:06:44;;;;;;;6.03;2.67;;;9.30;99.90;;;;;;5092714;28;20198;-79
2020/12/18 06:09:11;;;;;;;4.07;2.33;;;9.30;99.90;;;;;;5093615;28;20248;-79
2020/12/18 06:11:38;;;;;;;6.60;2.70;;;9.30;99.90;;;;;;5090034;28;20210;-79
2020/12/18 06:14:06;;;;;;;6.87;2.80;;;9.30;99.90;;;;;;5078309;28;20305;-79
2020/12/18 06:16:37;;;;;;;7.13;2.77;;;9.40;99.90;;;;;;5075140;28;20638;-80
2020/12/18 06:19:08;;;;;;;4.73;2.50;;;9.30;99.90;;;;;;5083572;28;20232;-80
2020/12/18 06:21:34;;;;;;;7.67;2.50;;;9.30;99.90;;;;;;5091180;28;20228;-79
2020/12/18 06:24:03;;;;;;;7.10;3.10;;;9.40;99.90;;;;;;5080484;28;20304;-82
2020/12/18 06:26:31;;;;;;;5.13;2.50;;;9.30;99.90;;;;;;5076615;28;20202;-79
2020/12/18 06:29:05;;;;;;;4.37;2.67;;;9.30;99.90;;;;;;5091660;28;20204;-80
2020/12/18 06:31:33;;;;;;;8.13;2.43;;;9.30;99.90;;;;;;5090971;28;20286;-79
2020/12/18 06:34:01;;;;;;;9.03;3.27;;;9.40;99.90;;;;;;5091182;28;20193;-79
2020/12/18 06:36:57;;;;;;;9.40;3.00;;;9.40;99.90;;;;;;5091765;28;20291;-81
2020/12/18 06:39:29;;;;;;;10.13;3.13;;;9.40;99.90;;;;;;5080652;28;20228;-79
2020/12/18 06:42:15;;;;;;;7.53;2.73;;;9.40;99.90;;;;;;5090899;28;20202;-81
2020/12/18 06:44:44;;;;;;;5.17;2.77;;;9.50;99.90;;;;;;5091072;28;20201;-81
2020/12/18 06:47:15;;;;;;;7.40;3.27;;;9.40;99.90;;;;;;5090577;28;20236;-79
2020/12/18 06:49:59;;;;;;;9.73;3.20;;;9.40;99.90;;;;;;5091422;28;20290;-79
2020/12/18 06:52:43;;;;;;;5.60;3.27;;;9.40;99.90;;;;;;5076271;28;20301;-80
2020/12/18 06:55:12;;;;;;;8.60;3.10;;;9.50;99.90;;;;;;5090881;28;20338;-80
2020/12/18 06:57:38;;;;;;;11.43;3.00;;;9.50;99.90;;;;;;5093307;28;20650;-81
2020/12/18 07:00:30;;;;;;;9.13;3.57;;;9.50;99.90;;;;;;5094445;28;20598;-80
2020/12/18 07:02:57;;;;;;;10.70;3.00;;;9.50;99.90;;;;;;5077656;28;20217;-79
2020/12/18 07:05:35;;;;;;;7.83;2.90;;;9.60;99.90;;;;;;5072297;28;20796;-80
2020/12/18 07:08:04;;;;;;;5.50;2.50;;;9.60;99.90;;;;;;5072599;28;20274;-81
2020/12/18 07:10:36;;;;;;;7.23;2.80;;;9.60;99.90;;;;;;5074299;28;20689;-79
2020/12/18 07:13:03;;;;;;;7.67;2.93;;;9.60;99.90;;;;;;5071565;28;20311;-81
2020/12/18 07:15:52;;;;;;;7.97;2.80;;;9.60;99.90;;;;;;5075999;28;20206;-81
2020/12/18 07:18:23;;;;;;;9.23;3.07;;;9.50;99.90;;;;;;5072955;28;20585;-80
2020/12/18 07:20:51;;;;;;;7.23;2.77;;;9.50;99.90;;;;;;5073595;28;20582;-82
2020/12/18 07:23:19;;;;;;;7.90;3.00;;;9.60;99.90;;;;;;5087107;28;20562;-80
2020/12/18 07:25:46;;;;;;;8.50;2.83;;;9.60;99.90;;;;;;5085272;28;20717;-80
2020/12/18 07:28:13;;;;;;;9.93;3.23;;;9.60;99.90;;;;;;5086098;28;20558;-80
2020/12/18 07:30:41;;;;;;;7.97;2.40;;;9.60;99.90;;;;;;5092159;28;20682;-81
2020/12/18 07:33:08;;;;;;;7.53;3.10;;;9.50;99.90;;;;;;5092554;28;20288;-82
2020/12/18 07:35:42;;;;;;;8.10;2.97;;;9.50;99.90;;;;;;5092695;28;20291;-79
2020/12/18 07:38:19;;;;;;;8.37;2.83;;;9.60;99.90;;;;;;5091059;28;20218;-80
2020/12/18 07:40:48;;;;;;;7.40;2.97;;;9.60;99.90;;;;;;5079786;28;20634;-83
2020/12/18 07:43:16;;;;;;;6.57;2.40;;;9.60;99.90;;;;;;5075068;28;20252;-84
2020/12/18 07:45:45;;;;;;;9.07;2.77;;;9.60;99.90;;;;;;5087738;28;20201;-82
2020/12/18 07:48:15;;;;;;;6.43;2.73;;;9.60;99.90;;;;;;5074070;28;20204;-84
2020/12/18 07:50:58;;;;;;;7.47;2.43;;;9.60;99.90;;;;;;5080195;28;20287;-85
2020/12/18 07:53:26;;;;;;;8.47;2.67;;;9.50;99.90;;;;;;5076400;28;20210;-84
2020/12/18 07:56:04;;;;;;;11.20;2.57;;;9.50;99.90;;;;;;5080918;28;20204;-82
2020/12/18 07:58:31;;;;;;;12.80;2.77;;;9.40;99.90;;;;;;5080335;28;20205;-82
2020/12/18 08:01:06;;;;;;;7.40;2.50;;;9.40;99.90;;;;;;5080632;28;20235;-82
2020/12/18 08:03:32;;;;;;;8.47;2.77;;;9.40;99.90;;;;;;5074372;28;20287;-81
2020/12/18 08:05:59;;;;;;;6.87;2.60;;;9.40;99.90;;;;;;5082154;28;20291;-82
2020/12/18 08:08:26;;;;;;;10.17;2.50;;;9.40;99.90;;;;;;5077365;28;20287;-81
2020/12/18 08:10:52;;;;;;;5.67;2.20;;;9.40;99.90;;;;;;5082146;28;20202;-81
2020/12/18 08:13:27;;;;;;;10.90;2.77;;;9.40;99.90;;;;;;5076703;28;20608;-82
2020/12/18 08:16:06;;;;;;;8.90;2.37;;;9.30;99.90;;;;;;5079113;28;20733;-80
2020/12/18 08:18:34;;;;;;;6.47;2.53;;;9.20;99.90;;;;;;5083107;28;20214;-82
2020/12/18 08:21:00;;;;;;;6.80;2.17;;;9.20;99.90;;;;;;5076445;28;20220;-82
2020/12/18 08:23:27;;;;;;;9.23;2.47;;;9.20;99.90;;;;;;5075450;28;20655;-81
2020/12/18 08:25:55;;;;;;;7.57;2.13;;;9.20;99.90;;;;;;5077728;28;20210;-84
2020/12/18 08:28:24;;;;;;;5.33;1.90;;;9.20;99.90;;;;;;5081050;28;20661;-82
2020/12/18 08:30:54;;;;;;;5.03;1.90;;;9.20;99.90;;;;;;5078424;28;20456;-81
2020/12/18 08:33:21;;;;;;;11.40;2.47;;;9.20;99.90;;;;;;5076852;28;20237;-83
2020/12/18 08:35:47;;;;;;;7.53;2.00;;;9.10;99.90;;;;;;5084992;28;20294;-81
2020/12/18 08:38:14;;;;;;;6.43;2.37;;;9.20;99.90;;;;;;5082591;28;20220;-82
2020/12/18 08:40:42;;;;;;;5.30;2.13;;;9.20;99.90;;;;;;5085025;28;20234;-82
2020/12/18 08:43:09;;;;;;;8.03;1.90;;;9.20;99.90;;;;;;5086656;28;20732;-81
2020/12/18 08:45:42;;;;;;;8.70;2.43;;;9.20;99.90;;;;;;5085173;28;20254;-81
2020/12/18 08:48:09;;;;;;;12.10;2.43;;;9.20;99.90;;;;;;5085817;28;20209;-81
2020/12/18 08:50:36;;;;;;;11.43;2.30;;;9.20;99.90;;;;;;5083819;28;20287;-81
2020/12/18 08:53:09;;;;;;;6.33;2.37;;;9.30;99.90;;;;;;5080734;28;20290;-82
2020/12/18 08:55:35;;;;;;;5.87;1.90;;;9.30;99.90;;;;;;5090728;28;20204;-80
2020/12/18 08:58:05;;;;;;;7.27;2.20;;;9.30;99.90;;;;;;5086962;28;20210;-80
2020/12/18 09:00:32;;;;;;;7.17;2.17;;;9.40;99.90;;;;;;5076460;28;20341;-82
2020/12/18 09:02:59;;;;;;;6.77;2.10;;;9.30;99.90;;;;;;5072819;28;20286;-80
2020/12/18 09:05:28;;;;;;;5.97;1.97;;;9.30;99.90;;;;;;5072395;28;20273;-82
2020/12/18 09:07:56;;;;;;;10.43;2.30;;;9.30;99.90;;;;;;5080921;28;20196;-81
2020/12/18 09:10:37;;;;;;;7.03;1.93;;;9.40;99.90;;;;;;5078621;28;20232;-80
2020/12/18 09:13:16;;;;;;;6.47;1.63;;;9.40;99.90;;;;;;5084208;28;20235;-82
2020/12/18 09:15:44;;;;;;;7.73;1.83;;;9.50;99.90;;;;;;5085501;28;20307;-80
2020/12/18 09:18:12;;;;;;;5.10;1.60;;;9.40;99.90;;;;;;5081699;28;20683;-80
2020/12/18 09:20:42;;;;;;;8.87;2.30;;;9.50;99.90;;;;;;5087731;28;20214;-82
2020/12/18 09:23:09;;;;;;;4.70;1.50;;;9.40;99.90;;;;;;5076393;28;20292;-80
2020/12/18 09:25:38;;;;;;;11.70;2.20;;;9.40;99.90;;;;;;5088055;28;20279;-82
2020/12/18 09:28:09;;;;;;;6.20;1.80;;;9.50;99.90;;;;;;5082960;28;20284;-81
2020/12/18 09:30:36;;;;;;;8.37;1.93;;;9.60;99.90;;;;;;5077017;28;20292;-81
2020/12/18 09:33:14;;;;;;;8.10;1.90;;;9.50;99.90;;;;;;5091536;28;20208;-82
2020/12/18 09:35:42;;;;;;;10.50;1.90;;;9.50;99.90;;;;;;5084361;28;20643;-80
2020/12/18 09:38:09;;;;;;;5.30;1.50;;;9.50;99.90;;;;;;5073995;28;20267;-79
2020/12/18 09:40:36;;;;;;;5.07;1.77;;;9.60;99.90;;;;;;5087492;28;20378;-80
2020/12/18 09:43:03;;;;;;;7.77;1.80;;;9.70;99.90;;;;;;5075280;28;20634;-81
2020/12/18 09:45:29;;;;;;;6.33;1.70;;;9.80;99.90;;;;;;5088310;28;20220;-81
2020/12/18 09:47:56;;;;;;;7.00;1.77;;;9.80;99.90;;;;;;5086540;28;20195;-81
2020/12/18 09:50:22;;;;;;;7.20;1.83;;;9.80;99.90;;;;;;5088992;28;20281;-79
2020/12/18 09:52:50;;;;;;;7.27;1.90;;;9.90;99.90;;;;;;5081463;28;20672;-81
2020/12/18 09:55:16;;;;;;;5.23;1.50;;;10.00;99.90;;;;;;5082802;28;20273;-80
2020/12/18 09:57:42;;;;;;;9.40;1.70;;;10.20;99.90;;;;;;5084953;28;20205;-81
2020/12/18 10:00:09;;;;;;;8.20;1.40;;;10.20;99.90;;;;;;5088323;28;20268;-80
2020/12/18 10:02:35;;;;;;;3.83;1.23;;;10.30;99.90;;;;;;5078159;28;20197;-81
2020/12/18 10:05:03;;;;;;;4.80;1.33;;;10.30;99.90;;;;;;5075814;28;20296;-79
2020/12/18 10:07:30;;;;;;;4.97;1.40;;;10.50;99.90;;;;;;5081389;28;20201;-77
2020/12/18 10:09:57;;;;;;;4.40;1.60;;;10.50;99.90;;;;;;5081277;28;20288;-76
2020/12/18 10:12:24;;;;;;;3.67;1.33;;;10.40;99.90;;;;;;5073559;28;20232;-76
2020/12/18 10:14:52;;;;;;;5.67;1.60;;;10.40;99.90;;;;;;5084378;28;20941;-77
2020/12/18 10:17:21;;;;;;;7.33;1.40;;;10.40;99.90;;;;;;5083678;28;20205;-77
2020/12/18 10:19:51;;;;;;;5.63;1.53;;;10.30;99.90;;;;;;5073402;28;20261;-77
2020/12/18 10:22:19;;;;;;;6.23;2.00;;;10.30;99.90;;;;;;5071489;28;20209;-77
2020/12/18 10:24:48;;;;;;;8.90;1.33;;;10.30;99.90;;;;;;5074336;28;20213;-77
2020/12/18 10:27:20;;;;;;;6.37;1.50;;;10.30;99.90;;;;;;5073158;28;20205;-80
2020/12/18 10:29:52;;;;;;;6.90;1.50;;;10.40;99.90;;;;;;5076422;28;20214;-79
2020/12/18 10:32:30;;;;;;;4.40;1.20;;;10.50;99.90;;;;;;5088257;28;20238;-78
2020/12/18 10:34:59;;;;;;;11.83;1.47;;;10.50;99.90;;;;;;5069574;28;20788;-78
2020/12/18 10:37:27;;;;;;;7.97;1.60;;;10.70;99.90;;;;;;5080897;28;20202;-79
2020/12/18 10:39:57;;;;;;;4.10;1.23;;;10.70;99.90;;;;;;5094663;28;20232;-77
2020/12/18 10:42:25;;;;;;;7.73;1.40;;;10.70;99.90;;;;;;5075967;28;20252;-77
2020/12/18 10:44:52;;;;;;;7.27;1.47;;;10.70;99.90;;;;;;5085301;28;20296;-78
2020/12/18 10:47:18;;;;;;;6.27;1.50;;;10.70;99.90;;;;;;5076234;28;20646;-80
2020/12/18 10:49:45;;;;;;;5.73;1.30;;;10.80;99.90;;;;;;5075059;28;20240;-81
2020/12/18 10:52:11;;;;;;;2.57;1.00;;;11.00;99.90;;;;;;5074245;28;20332;-77
2020/12/18 10:54:37;;;;;;;4.10;1.33;;;11.00;99.90;;;;;;5077314;28;20213;-79
2020/12/18 10:57:04;;;;;;;3.03;1.10;;;11.00;99.90;;;;;;5088530;28;20633;-78
2020/12/18 10:59:31;;;;;;;5.73;1.10;;;11.10;99.90;;;;;;5077449;28;20307;-81
2020/12/18 11:01:59;;;;;;;3.93;1.30;;;11.10;99.90;;;;;;5084042;28;20209;-79
2020/12/18 11:04:26;;;;;;;4.53;1.70;;;11.10;99.90;;;;;;5079770;28;20707;-78
2020/12/18 11:06:53;;;;;;;5.60;1.00;;;11.20;99.90;;;;;;5073600;28;20198;-80
2020/12/18 11:09:19;;;;;;;1.97;1.10;;;11.30;99.90;;;;;;5082878;28;20198;-78
2020/12/18 11:11:50;;;;;;;4.17;1.13;;;11.20;99.90;;;;;;5085603;28;20355;-78
2020/12/18 11:14:16;;;;;;;3.03;1.10;;;11.20;99.90;;;;;;5073119;28;20286;-81
2020/12/18 11:16:43;;;;;;;3.47;1.23;;;11.20;99.90;;;;;;5073508;28;20210;-80
2020/12/18 11:19:10;;;;;;;4.13;1.10;;;11.20;99.90;;;;;;5074817;28;20288;-78
2020/12/18 11:21:37;;;;;;;3.97;1.17;;;11.20;99.90;;;;;;5073215;28;20208;-78
2020/12/18 11:24:04;;;;;;;4.23;1.10;;;11.20;99.90;;;;;;5073765;28;20209;-79
2020/12/18 11:26:30;;;;;;;2.57;0.90;;;11.10;99.90;;;;;;5082505;28;20578;-78
2020/12/18 11:28:57;;;;;;;3.60;1.10;;;11.20;99.90;;;;;;5078053;28;20571;-79
2020/12/18 11:31:23;;;;;;;2.10;0.90;;;11.30;99.90;;;;;;5079753;28;20219;-80
2020/12/18 11:33:50;;;;;;;6.37;1.40;;;11.30;99.90;;;;;;5076487;28;20219;-78
2020/12/18 11:36:17;;;;;;;3.07;0.90;;;11.40;99.90;;;;;;5087572;28;20198;-78
2020/12/18 11:38:43;;;;;;;3.40;1.07;;;11.40;99.90;;;;;;5074405;28;20673;-80
2020/12/18 11:41:10;;;;;;;1.53;1.00;;;11.40;99.90;;;;;;5085850;28;20320;-80
2020/12/18 11:43:36;;;;;;;3.07;1.00;;;11.40;99.90;;;;;;5084564;28;20282;-80
2020/12/18 11:46:03;;;;;;;4.57;1.00;;;11.40;99.90;;;;;;5072393;28;20205;-78
2020/12/18 11:48:30;;;;;;;3.70;0.90;;;11.50;99.90;;;;;;5073108;28;20203;-77
2020/12/18 11:50:57;;;;;;;4.60;0.77;;;11.50;99.90;;;;;;5072834;28;20208;-80
2020/12/18 11:53:23;;;;;;;5.37;1.23;;;11.70;99.90;;;;;;5076339;28;20400;-78
2020/12/18 11:55:50;;;;;;;5.77;1.00;;;11.80;99.90;;;;;;5085761;28;20290;-76
2020/12/18 11:58:16;;;;;;;3.53;1.13;;;11.80;99.90;;;;;;5078005;28;20196;-76
2020/12/18 12:00:43;;;;;;;3.50;0.90;;;11.80;99.90;;;;;;5080803;28;20658;-79
2020/12/18 12:03:10;;;;;;;2.50;0.77;;;11.90;99.90;;;;;;5088922;28;20335;-76
2020/12/18 12:05:36;;;;;;;2.13;0.70;;;11.90;99.90;;;;;;5080365;28;20336;-78
2020/12/18 12:08:04;;;;;;;5.47;0.70;;;12.00;99.90;;;;;;5078644;28;20204;-77
2020/12/18 12:10:34;;;;;;;2.20;0.80;;;12.00;99.90;;;;;;5082234;28;20284;-75
2020/12/18 12:13:00;;;;;;;3.47;0.73;;;11.90;99.90;;;;;;5080700;28;20210;-77
2020/12/18 12:15:27;;;;;;;2.23;0.90;;;11.90;99.90;;;;;;5078915;28;20290;-79
2020/12/18 12:17:53;;;;;;;2.23;1.00;;;12.00;99.90;;;;;;5080083;28;20203;-79
2020/12/18 12:20:20;;;;;;;3.57;0.60;;;12.00;99.90;;;;;;5084365;28;20233;-77
2020/12/18 12:22:46;;;;;;;2.50;0.57;;;12.00;99.90;;;;;;5084465;28;20642;-79
2020/12/18 12:25:14;;;;;;;3.27;0.80;;;12.00;99.90;;;;;;5082461;28;20214;-80
2020/12/18 12:27:40;;;;;;;1.50;0.77;;;12.00;99.90;;;;;;5088483;28;20237;-80
2020/12/18 12:30:15;;;;;;;1.63;0.70;;;11.90;99.90;;;;;;5088185;28;20740;-79
2020/12/18 12:32:42;;;;;;;1.37;0.70;;;12.00;99.90;;;;;;5080691;28;20225;-81
2020/12/18 12:35:09;;;;;;;4.13;0.80;;;12.10;99.90;;;;;;5087789;28;20236;-80
2020/12/18 12:37:36;;;;;;;3.30;0.80;;;12.10;99.90;;;;;;5083090;28;20199;-80
2020/12/18 12:40:03;;;;;;;6.97;1.07;;;12.10;99.90;;;;;;5091100;28;20692;-80
2020/12/18 12:42:30;;;;;;;2.67;0.60;;;12.10;99.90;;;;;;5085812;28;20230;-78
2020/12/18 12:44:56;;;;;;;2.30;1.03;;;12.10;99.90;;;;;;5081815;28;20283;-77
2020/12/18 12:47:23;;;;;;;2.90;1.50;;;12.10;99.90;;;;;;5078916;28;20247;-80
2020/12/18 12:49:50;;;;;;;1.93;0.80;;;12.20;99.90;;;;;;5090070;28;20216;-77
2020/12/18 12:52:17;;;;;;;2.77;0.67;;;12.10;99.90;;;;;;5095427;28;20211;-77
2020/12/18 12:54:46;;;;;;;2.50;0.80;;;12.10;99.90;;;;;;5078821;28;20302;-78
2020/12/18 12:57:12;;;;;;;4.03;0.80;;;12.10;99.90;;;;;;5085354;28;20266;-78
2020/12/18 12:59:39;;;;;;;4.77;0.70;;;12.20;99.90;;;;;;5088593;28;20244;-78